Time;durP1;ratioP1;P1;durP2;ratioP2;P2;SDS_P1;SDS_P2;PMS_P1;PMS_P2;Temp;Humidity;BMP_temperature;BMP_pressure;BME280_temperature;BME280_humidity;BME280_pressure;Samples;Min_cycle;Max_cycle;Signal;HPM_P1;HPM_P2
2023/04/11 00:00:11;;;;;;;0.20;0.20;;;9.80;99.90;;;;;;6246433;22;20022;-77
2023/04/11 00:02:39;;;;;;;0.10;0.10;;;9.70;99.90;;;;;;6271676;22;20008;-77
2023/04/11 00:05:06;;;;;;;0.20;0.20;;;9.60;99.90;;;;;;6246328;22;20064;-78
2023/04/11 00:07:32;;;;;;;0.13;0.13;;;9.50;99.90;;;;;;6273465;22;20015;-78
2023/04/11 00:09:57;;;;;;;0.20;0.20;;;9.40;99.90;;;;;;6272792;22;20023;-77
2023/04/11 00:12:23;;;;;;;0.10;0.10;;;9.30;99.90;;;;;;6245366;22;20046;-78
2023/04/11 00:14:55;;;;;;;0.20;0.20;;;9.30;99.90;;;;;;6246150;22;20063;-77
2023/04/11 00:17:22;;;;;;;0.13;0.13;;;9.20;99.90;;;;;;6271713;22;20030;-78
2023/04/11 00:19:52;;;;;;;0.20;0.20;;;9.10;99.90;;;;;;6273878;22;20042;-78
2023/04/11 00:22:18;;;;;;;0.20;0.20;;;9.10;99.90;;;;;;6274165;22;20026;-77
2023/04/11 00:24:44;;;;;;;0.20;0.20;;;9.00;99.90;;;;;;6250580;22;20019;-78
2023/04/11 00:27:10;;;;;;;0.20;0.20;;;9.00;99.90;;;;;;6248217;22;20008;-78
2023/04/11 00:29:35;;;;;;;0.10;0.10;;;8.90;99.90;;;;;;6248442;22;20486;-78
2023/04/11 00:32:02;;;;;;;0.20;0.20;;;8.90;99.90;;;;;;6275108;22;20015;-77
2023/04/11 00:34:28;;;;;;;0.20;0.20;;;8.80;99.90;;;;;;6249578;22;20364;-78
2023/04/11 00:36:54;;;;;;;0.10;0.10;;;8.70;99.90;;;;;;6275820;22;20012;-77
2023/04/11 00:39:29;;;;;;;0.10;0.10;;;8.80;99.90;;;;;;6277175;22;20020;-77
2023/04/11 00:42:04;;;;;;;0.10;0.10;;;8.70;99.90;;;;;;6253513;22;20015;-76
2023/04/11 00:44:30;;;;;;;0.10;0.10;;;8.60;99.90;;;;;;6253735;22;20019;-78
2023/04/11 00:47:00;;;;;;;0.15;0.15;;;8.60;99.90;;;;;;6274650;22;20400;-78
2023/04/11 00:49:27;;;;;;;0.20;0.20;;;8.80;99.90;;;;;;6273943;22;20313;-78
2023/04/11 00:51:56;;;;;;;0.10;0.10;;;8.50;99.90;;;;;;6245483;22;20012;-78
2023/04/11 00:54:27;;;;;;;0.20;0.20;;;8.40;99.90;;;;;;6274877;22;20019;-79
2023/04/11 00:56:54;;;;;;;;;;;8.40;99.90;;;;;;6274163;22;20058;-79
2023/04/11 00:59:20;;;;;;;0.17;0.17;;;8.40;99.90;;;;;;6273881;22;19915;-78
2023/04/11 01:01:48;;;;;;;0.20;0.20;;;8.30;99.90;;;;;;6273996;22;20012;-78
2023/04/11 01:04:16;;;;;;;0.20;0.20;;;8.40;99.90;;;;;;6248611;22;20510;-78
2023/04/11 01:06:48;;;;;;;0.17;0.17;;;8.30;99.90;;;;;;6255414;22;20051;-77
2023/04/11 01:09:15;;;;;;;0.20;0.20;;;8.20;99.90;;;;;;6273862;22;20024;-77
2023/04/11 01:11:41;;;;;;;0.20;0.20;;;8.20;99.90;;;;;;6273752;22;20074;-77
2023/04/11 01:14:07;;;;;;;0.20;0.20;;;8.20;99.90;;;;;;6274122;22;20058;-77
2023/04/11 01:16:33;;;;;;;0.20;0.20;;;8.20;99.90;;;;;;6274652;22;20011;-77
2023/04/11 01:19:02;;;;;;;0.20;0.20;;;8.10;99.90;;;;;;6245782;22;20016;-78
2023/04/11 01:21:28;;;;;;;0.20;0.20;;;8.10;99.90;;;;;;6274363;22;20682;-77
2023/04/11 01:23:55;;;;;;;0.10;0.10;;;7.80;99.90;;;;;;6247236;22;20054;-77
2023/04/11 01:26:21;;;;;;;0.20;0.20;;;8.10;99.90;;;;;;6271010;22;20426;-77
2023/04/11 01:28:46;;;;;;;0.20;0.20;;;8.10;99.90;;;;;;6246786;22;20038;-77
2023/04/11 01:31:12;;;;;;;0.20;0.20;;;8.00;99.90;;;;;;6273500;22;20016;-78
2023/04/11 01:33:42;;;;;;;0.17;0.17;;;8.10;99.90;;;;;;6246302;22;20027;-78
2023/04/11 01:36:08;;;;;;;0.20;0.20;;;8.00;99.90;;;;;;6273873;22;20012;-79
2023/04/11 01:38:33;;;;;;;0.20;0.20;;;8.00;99.90;;;;;;6274489;22;20058;-78
2023/04/11 01:40:59;;;;;;;0.10;0.10;;;8.00;99.90;;;;;;6271757;22;20011;-78
2023/04/11 01:43:28;;;;;;;0.20;0.20;;;8.00;99.90;;;;;;6245090;22;20027;-78
2023/04/11 01:45:54;;;;;;;0.20;0.20;;;8.00;99.90;;;;;;6282865;22;20020;-80
2023/04/11 01:48:19;;;;;;;0.20;0.20;;;8.00;99.90;;;;;;6250039;22;20123;-79
2023/04/11 01:50:45;;;;;;;0.20;0.20;;;8.00;99.90;;;;;;6274555;22;20008;-78
2023/04/11 01:53:14;;;;;;;0.10;0.10;;;7.70;99.90;;;;;;6274771;22;20019;-79
2023/04/11 01:55:40;;;;;;;0.10;0.10;;;8.00;99.90;;;;;;6245607;22;20008;-79
2023/04/11 01:58:06;;;;;;;0.20;0.20;;;8.00;99.90;;;;;;6246037;22;20393;-78
2023/04/11 02:00:31;;;;;;;0.10;0.10;;;8.00;99.90;;;;;;6273500;22;20375;-79
2023/04/11 02:02:57;;;;;;;0.17;0.17;;;7.90;99.90;;;;;;6247314;22;20089;-78
2023/04/11 02:05:25;;;;;;;0.17;0.17;;;7.90;99.90;;;;;;6275859;22;20102;-78
2023/04/11 02:07:51;;;;;;;0.10;0.10;;;7.90;99.90;;;;;;6276067;22;20043;-78
2023/04/11 02:10:17;;;;;;;0.20;0.20;;;8.00;99.90;;;;;;6273376;22;20019;-78
2023/04/11 02:12:42;;;;;;;0.20;0.20;;;8.00;99.90;;;;;;6246803;22;20495;-78
2023/04/11 02:15:08;;;;;;;0.20;0.20;;;7.90;99.90;;;;;;6275258;22;20023;-78
2023/04/11 02:17:35;;;;;;;0.10;0.10;;;8.00;99.90;;;;;;6276487;22;20083;-78
2023/04/11 02:20:03;;;;;;;0.10;0.10;;;7.90;99.90;;;;;;6249844;22;20062;-78
2023/04/11 02:22:29;;;;;;;0.13;0.13;;;8.00;99.90;;;;;;6275653;22;20437;-77
2023/04/11 02:24:55;;;;;;;0.10;0.10;;;7.90;99.90;;;;;;6280856;22;20015;-76
2023/04/11 02:27:21;;;;;;;0.20;0.20;;;7.90;99.90;;;;;;6286556;22;20012;-79
2023/04/11 02:29:46;;;;;;;0.20;0.20;;;7.90;99.90;;;;;;6275378;22;20020;-79
2023/04/11 02:32:12;;;;;;;0.20;0.20;;;7.90;99.90;;;;;;6246258;22;20008;-79
2023/04/11 02:34:38;;;;;;;0.17;0.17;;;7.80;99.90;;;;;;6246432;22;20024;-79
2023/04/11 02:37:03;;;;;;;0.20;0.20;;;7.90;99.90;;;;;;6244481;22;20093;-79
2023/04/11 02:39:29;;;;;;;0.20;0.20;;;7.90;99.90;;;;;;6273805;22;20588;-79
2023/04/11 02:41:56;;;;;;;0.10;0.10;;;7.90;99.90;;;;;;6246105;22;20016;-79
2023/04/11 02:44:21;;;;;;;0.20;0.20;;;7.90;99.90;;;;;;6244846;22;20202;-79
2023/04/11 02:46:47;;;;;;;0.20;0.20;;;7.90;99.90;;;;;;6246542;22;20095;-77
2023/04/11 02:49:19;;;;;;;0.10;0.10;;;7.90;99.90;;;;;;6273641;22;20058;-79
2023/04/11 02:51:44;;;;;;;0.20;0.20;;;7.80;99.90;;;;;;6272919;22;20008;-79
2023/04/11 02:54:10;;;;;;;0.20;0.20;;;7.80;99.90;;;;;;6273698;22;20436;-79
2023/04/11 02:56:37;;;;;;;0.20;0.20;;;7.80;99.90;;;;;;6271654;22;20091;-78
2023/04/11 02:59:05;;;;;;;0.20;0.20;;;7.40;99.90;;;;;;6273040;22;20019;-78
2023/04/11 03:01:31;;;;;;;0.20;0.20;;;7.90;99.90;;;;;;6273255;22;20012;-78
2023/04/11 03:03:59;;;;;;;0.20;0.20;;;7.80;99.90;;;;;;6247144;22;20447;-77
2023/04/11 03:06:25;;;;;;;0.20;0.20;;;7.80;99.90;;;;;;6282065;22;20022;-79
2023/04/11 03:08:51;;;;;;;0.20;0.20;;;7.80;99.90;;;;;;6276540;22;20091;-78
2023/04/11 03:11:17;;;;;;;0.20;0.20;;;7.80;99.90;;;;;;6272635;22;20048;-78
2023/04/11 03:13:43;;;;;;;0.20;0.20;;;7.80;99.90;;;;;;6272790;22;20020;-78
2023/04/11 03:16:12;;;;;;;0.17;0.17;;;7.80;99.90;;;;;;6246313;22;20454;-78
2023/04/11 03:18:44;;;;;;;0.20;0.20;;;7.80;99.90;;;;;;6245697;22;20073;-79
2023/04/11 03:21:10;;;;;;;0.20;0.20;;;7.80;99.90;;;;;;6246640;22;20018;-78
2023/04/11 03:23:42;;;;;;;0.20;0.20;;;7.70;99.90;;;;;;6273976;22;20022;-79
2023/04/11 03:26:07;;;;;;;0.30;0.30;;;7.80;99.90;;;;;;6270919;22;20016;-79
2023/04/11 03:28:33;;;;;;;0.13;0.13;;;7.80;99.90;;;;;;6246023;22;20399;-78
2023/04/11 03:30:59;;;;;;;0.20;0.20;;;7.80;99.90;;;;;;6245187;22;20026;-79
2023/04/11 03:33:25;;;;;;;0.17;0.17;;;7.70;99.90;;;;;;6273001;22;20103;-79
2023/04/11 03:35:50;;;;;;;0.20;0.20;;;7.70;99.90;;;;;;6246888;22;20092;-79
2023/04/11 03:38:16;;;;;;;0.20;0.20;;;7.70;99.90;;;;;;6273870;22;20456;-79
2023/04/11 03:40:41;;;;;;;0.20;0.20;;;7.80;99.90;;;;;;6245273;22;20034;-78
2023/04/11 03:43:07;;;;;;;0.20;0.20;;;7.70;99.90;;;;;;6247219;22;20464;-78
2023/04/11 03:45:33;;;;;;;0.20;0.20;;;7.70;99.90;;;;;;6245011;22;20456;-79
2023/04/11 03:47:59;;;;;;;0.20;0.20;;;7.70;99.90;;;;;;6255253;22;20022;-80
2023/04/11 03:50:24;;;;;;;0.20;0.20;;;7.80;99.90;;;;;;6248173;22;20015;-79
2023/04/11 03:52:50;;;;;;;0.20;0.20;;;7.70;99.90;;;;;;6275864;22;20012;-79
2023/04/11 03:55:16;;;;;;;0.10;0.10;;;7.60;99.90;;;;;;6245685;22;20012;-79
2023/04/11 03:57:41;;;;;;;0.20;0.20;;;7.70;99.90;;;;;;6247875;22;20042;-79
2023/04/11 04:00:08;;;;;;;0.10;0.10;;;7.70;99.90;;;;;;6274123;22;20020;-78
2023/04/11 04:02:33;;;;;;;0.20;0.20;;;7.80;99.90;;;;;;6246494;22;20336;-79
2023/04/11 04:05:00;;;;;;;0.20;0.20;;;7.80;99.90;;;;;;6277171;22;20020;-79
2023/04/11 04:07:28;;;;;;;0.20;0.20;;;7.80;99.90;;;;;;6280459;22;20008;-78
2023/04/11 04:09:57;;;;;;;0.15;0.15;;;7.80;99.90;;;;;;6291110;22;20387;-78
2023/04/11 04:12:23;;;;;;;0.20;0.20;;;7.80;99.90;;;;;;6278129;22;20016;-79
2023/04/11 04:14:48;;;;;;;0.10;0.10;;;7.80;99.90;;;;;;6246820;22;20054;-79
2023/04/11 04:17:15;;;;;;;0.10;0.10;;;7.90;99.90;;;;;;6275114;22;20100;-78
2023/04/11 04:19:41;;;;;;;0.10;0.10;;;7.80;99.90;;;;;;6275211;22;20007;-78
2023/04/11 04:22:10;;;;;;;0.20;0.20;;;7.90;99.90;;;;;;6274203;22;20523;-77
2023/04/11 04:24:41;;;;;;;0.20;0.20;;;7.90;99.90;;;;;;6275814;22;20019;-78
2023/04/11 04:27:13;;;;;;;0.20;0.20;;;7.90;99.90;;;;;;6256207;22;20019;-78
2023/04/11 04:29:45;;;;;;;0.20;0.20;;;7.90;99.90;;;;;;6281607;22;20314;-78
2023/04/11 04:32:13;;;;;;;0.10;0.10;;;7.90;99.90;;;;;;6246713;22;20008;-77
2023/04/11 04:34:48;;;;;;;0.17;0.17;;;8.00;99.90;;;;;;6274874;22;20019;-78
2023/04/11 04:37:23;;;;;;;0.15;0.15;;;7.90;99.90;;;;;;6273327;22;20026;-78
2023/04/11 04:40:06;;;;;;;0.10;0.10;;;7.90;99.90;;;;;;6247450;22;20070;-78
2023/04/11 04:42:33;;;;;;;0.20;0.20;;;7.90;99.90;;;;;;6273460;22;20073;-78
2023/04/11 04:44:59;;;;;;;0.10;0.10;;;7.90;99.90;;;;;;6273448;22;20023;-78
2023/04/11 04:47:32;;;;;;;0.20;0.20;;;8.00;99.90;;;;;;6274571;22;20026;-79
2023/04/11 04:49:58;;;;;;;0.20;0.20;;;8.00;99.90;;;;;;6274585;22;20016;-79
2023/04/11 04:52:25;;;;;;;0.10;0.10;;;7.90;99.90;;;;;;6246770;22;20016;-78
2023/04/11 04:54:57;;;;;;;0.20;0.20;;;7.90;99.90;;;;;;6275453;22;20050;-80
2023/04/11 04:57:24;;;;;;;0.20;0.20;;;7.90;99.90;;;;;;6246094;22;20022;-79
2023/04/11 04:59:49;;;;;;;0.20;0.20;;;7.90;99.90;;;;;;6247395;22;20037;-78
2023/04/11 05:02:16;;;;;;;0.20;0.20;;;7.90;99.90;;;;;;6271681;22;20050;-79
2023/04/11 05:04:43;;;;;;;0.20;0.20;;;7.90;99.90;;;;;;6246241;22;20016;-79
2023/04/11 05:07:13;;;;;;;0.20;0.20;;;7.90;99.90;;;;;;6252012;22;20320;-78
2023/04/11 05:09:39;;;;;;;0.10;0.10;;;7.90;99.90;;;;;;6281573;22;20016;-78
2023/04/11 05:12:05;;;;;;;0.20;0.20;;;7.90;99.90;;;;;;6244893;22;20012;-77
2023/04/11 05:14:31;;;;;;;0.10;0.10;;;7.90;99.90;;;;;;6274783;22;20015;-77
2023/04/11 05:16:56;;;;;;;0.10;0.10;;;7.90;99.90;;;;;;6247023;22;20485;-78
2023/04/11 05:19:22;;;;;;;0.20;0.20;;;7.90;99.90;;;;;;6246139;22;20023;-78
2023/04/11 05:21:48;;;;;;;0.20;0.20;;;7.90;99.90;;;;;;6247241;22;20098;-78
2023/04/11 05:24:19;;;;;;;0.20;0.20;;;7.90;99.90;;;;;;6274681;22;20070;-77
2023/04/11 05:26:44;;;;;;;0.20;0.20;;;7.90;99.90;;;;;;6272552;22;20065;-77
2023/04/11 05:29:10;;;;;;;0.20;0.20;;;7.80;99.90;;;;;;6273857;22;20024;-77
2023/04/11 05:31:36;;;;;;;0.20;0.20;;;7.60;99.90;;;;;;6246528;22;20018;-77
2023/04/11 05:34:02;;;;;;;0.20;0.20;;;7.50;99.90;;;;;;6246444;22;20027;-76
2023/04/11 05:36:28;;;;;;;0.20;0.20;;;7.40;99.90;;;;;;6247582;22;20016;-77
2023/04/11 05:38:54;;;;;;;0.20;0.20;;;7.20;99.90;;;;;;6246616;22;20019;-77
2023/04/11 05:41:19;;;;;;;0.20;0.20;;;7.20;99.90;;;;;;6273427;22;20018;-77
2023/04/11 05:43:45;;;;;;;0.10;0.10;;;7.20;99.90;;;;;;6273939;22;20027;-77
2023/04/11 05:46:11;;;;;;;0.20;0.20;;;7.10;99.90;;;;;;6249322;22;20082;-78
2023/04/11 05:48:40;;;;;;;0.20;0.20;;;7.20;99.90;;;;;;6290154;22;20049;-77
2023/04/11 05:51:06;;;;;;;0.20;0.20;;;7.10;99.90;;;;;;6253266;22;20012;-77
2023/04/11 05:53:32;;;;;;;0.10;0.10;;;7.20;99.90;;;;;;6284750;22;20012;-77
2023/04/11 05:55:58;;;;;;;0.10;0.10;;;7.30;99.90;;;;;;6273565;22;20378;-78
2023/04/11 05:58:24;;;;;;;0.10;0.10;;;7.20;99.90;;;;;;6246629;22;20352;-78
2023/04/11 06:00:50;;;;;;;0.10;0.10;;;7.20;99.90;;;;;;6245088;22;20011;-78
2023/04/11 06:03:19;;;;;;;0.20;0.20;;;7.20;99.90;;;;;;6273457;22;20015;-78
2023/04/11 06:05:47;;;;;;;0.20;0.20;;;7.30;99.90;;;;;;6272370;22;20051;-77
2023/04/11 06:08:13;;;;;;;0.20;0.20;;;7.30;99.90;;;;;;6270624;22;20480;-78
2023/04/11 06:10:38;;;;;;;0.20;0.20;;;7.30;99.90;;;;;;6272666;22;20016;-77
2023/04/11 06:13:04;;;;;;;0.10;0.10;;;7.40;99.90;;;;;;6245947;22;20008;-78
2023/04/11 06:15:32;;;;;;;0.20;0.20;;;7.50;99.90;;;;;;6245863;22;20024;-78
2023/04/11 06:17:58;;;;;;;0.20;0.20;;;7.50;99.90;;;;;;6246138;22;20103;-79
2023/04/11 06:20:26;;;;;;;0.20;0.20;;;7.50;99.90;;;;;;6272544;22;20069;-77
2023/04/11 06:22:52;;;;;;;0.20;0.20;;;7.50;99.90;;;;;;6272887;22;20016;-78
2023/04/11 06:25:19;;;;;;;0.20;0.20;;;7.50;99.90;;;;;;6243571;22;20019;-77
2023/04/11 06:27:46;;;;;;;0.10;0.10;;;7.60;99.90;;;;;;6247678;22;20012;-78
2023/04/11 06:30:17;;;;;;;0.20;0.20;;;7.60;99.90;;;;;;6245977;22;20019;-79
2023/04/11 06:32:45;;;;;;;0.10;0.10;;;7.70;99.90;;;;;;6246133;22;20034;-78
2023/04/11 06:35:11;;;;;;;0.10;0.10;;;7.80;99.90;;;;;;6245738;22;20016;-78
2023/04/11 06:37:37;;;;;;;0.20;0.20;;;7.80;99.90;;;;;;6272287;22;20019;-78
2023/04/11 06:40:06;;;;;;;0.17;0.17;;;7.80;99.90;;;;;;6245370;22;20026;-77
2023/04/11 06:42:32;;;;;;;0.10;0.10;;;7.80;99.90;;;;;;6243147;22;20094;-77
2023/04/11 06:45:00;;;;;;;0.20;0.20;;;8.10;99.90;;;;;;6272432;22;20094;-78
2023/04/11 06:47:26;;;;;;;0.20;0.20;;;7.90;99.90;;;;;;6246299;22;20050;-78
2023/04/11 06:49:51;;;;;;;0.20;0.20;;;7.90;99.90;;;;;;6246361;22;20554;-77
2023/04/11 06:52:17;;;;;;;0.20;0.20;;;7.90;99.90;;;;;;6273363;22;20051;-77
2023/04/11 06:54:43;;;;;;;0.17;0.17;;;7.90;99.90;;;;;;6274296;22;20112;-76
2023/04/11 06:57:09;;;;;;;0.20;0.20;;;7.90;99.90;;;;;;6244795;22;20284;-77
2023/04/11 06:59:35;;;;;;;0.20;0.20;;;7.80;99.90;;;;;;6246188;22;20007;-77
2023/04/11 07:02:00;;;;;;;0.20;0.20;;;7.70;99.90;;;;;;6245770;22;20313;-77
2023/04/11 07:04:26;;;;;;;0.20;0.20;;;7.80;99.90;;;;;;6273526;22;20043;-78
2023/04/11 07:06:52;;;;;;;0.10;0.10;;;7.70;99.90;;;;;;6277503;22;20008;-77
2023/04/11 07:09:17;;;;;;;0.10;0.10;;;7.70;99.90;;;;;;6274616;22;20023;-76
2023/04/11 07:11:43;;;;;;;0.10;0.10;;;7.80;99.90;;;;;;6271656;22;20043;-77
2023/04/11 07:14:09;;;;;;;0.13;0.13;;;7.90;99.90;;;;;;6245963;22;20336;-77
2023/04/11 07:16:35;;;;;;;0.20;0.20;;;7.90;99.90;;;;;;6245252;22;20129;-77
2023/04/11 07:19:02;;;;;;;0.10;0.10;;;7.90;99.90;;;;;;6271844;22;20019;-77
2023/04/11 07:21:29;;;;;;;0.20;0.20;;;8.00;99.90;;;;;;6272760;22;20019;-77
2023/04/11 07:23:55;;;;;;;0.20;0.20;;;8.10;99.90;;;;;;6273960;22;20043;-75
2023/04/11 07:26:22;;;;;;;0.10;0.10;;;8.10;99.90;;;;;;6244029;22;20110;-77
2023/04/11 07:28:48;;;;;;;0.20;0.20;;;8.10;99.90;;;;;;6246504;22;20424;-77
2023/04/11 07:31:16;;;;;;;0.10;0.10;;;8.20;99.90;;;;;;6274763;22;20019;-77
2023/04/11 07:33:42;;;;;;;0.10;0.10;;;8.30;99.90;;;;;;6273609;22;20623;-76
2023/04/11 07:36:11;;;;;;;0.20;0.20;;;8.40;99.90;;;;;;6249215;22;20318;-76
2023/04/11 07:38:37;;;;;;;0.20;0.20;;;8.40;99.90;;;;;;6271151;22;20020;-78
2023/04/11 07:41:04;;;;;;;0.10;0.10;;;8.40;99.90;;;;;;6268610;22;20267;-77
2023/04/11 07:43:30;;;;;;;0.20;0.20;;;8.50;99.90;;;;;;6270792;22;20372;-75
2023/04/11 07:45:57;;;;;;;0.15;0.15;;;8.50;99.90;;;;;;6269634;22;20012;-74
2023/04/11 07:48:25;;;;;;;0.10;0.10;;;8.60;99.90;;;;;;6274100;22;20031;-75
2023/04/11 07:50:51;;;;;;;0.20;0.20;;;8.70;99.90;;;;;;6271292;22;20069;-74
2023/04/11 07:53:17;;;;;;;0.20;0.20;;;8.80;99.90;;;;;;6269089;22;20018;-74
2023/04/11 07:55:43;;;;;;;0.10;0.10;;;9.00;99.90;;;;;;6262576;22;20027;-75
2023/04/11 07:58:08;;;;;;;0.20;0.20;;;8.90;99.90;;;;;;6272608;22;20448;-76
2023/04/11 08:00:34;;;;;;;0.10;0.10;;;9.00;99.90;;;;;;6242783;22;20008;-75
2023/04/11 08:03:07;;;;;;;0.20;0.20;;;9.10;99.90;;;;;;6241998;22;20023;-75
2023/04/11 08:05:34;;;;;;;0.10;0.10;;;9.00;99.90;;;;;;6269062;22;20542;-75
2023/04/11 08:08:01;;;;;;;0.10;0.10;;;8.90;99.90;;;;;;6243637;22;20022;-75
2023/04/11 08:10:27;;;;;;;0.20;0.20;;;8.90;99.90;;;;;;6269756;22;20121;-74
2023/04/11 08:12:53;;;;;;;0.20;0.20;;;8.90;99.90;;;;;;6243035;22;20462;-75
2023/04/11 08:15:19;;;;;;;0.15;0.15;;;8.90;99.90;;;;;;6240542;22;20023;-75
2023/04/11 08:17:50;;;;;;;0.20;0.20;;;8.80;99.90;;;;;;6242180;22;20086;-74
2023/04/11 08:20:17;;;;;;;0.20;0.20;;;8.80;99.90;;;;;;6242087;22;20023;-74
2023/04/11 08:22:46;;;;;;;0.15;0.15;;;9.00;99.90;;;;;;6241460;22;20102;-75
2023/04/11 08:25:13;;;;;;;0.20;0.20;;;8.90;99.90;;;;;;6242303;22;20384;-74
2023/04/11 08:27:40;;;;;;;0.20;0.20;;;9.00;99.90;;;;;;6270735;22;20058;-74
2023/04/11 08:30:09;;;;;;;0.17;0.17;;;9.10;99.90;;;;;;6269776;22;20459;-75
2023/04/11 08:32:35;;;;;;;0.10;0.10;;;9.20;99.90;;;;;;6269028;22;20047;-75
2023/04/11 08:35:01;;;;;;;0.10;0.10;;;9.20;99.90;;;;;;6240974;22;20020;-74
2023/04/11 08:37:27;;;;;;;0.20;0.20;;;9.20;99.90;;;;;;6267305;22;20024;-75
2023/04/11 08:39:52;;;;;;;0.20;0.20;;;9.50;99.90;;;;;;6240662;22;20018;-75
2023/04/11 08:42:29;;;;;;;0.10;0.10;;;9.30;99.90;;;;;;6241033;22;20022;-74
2023/04/11 08:45:01;;;;;;;0.17;0.17;;;9.30;99.90;;;;;;6244073;22;20026;-75
2023/04/11 08:47:27;;;;;;;0.10;0.10;;;9.40;99.90;;;;;;6273268;22;20077;-75
2023/04/11 08:49:53;;;;;;;0.20;0.20;;;9.40;99.90;;;;;;6242549;22;20039;-74
2023/04/11 08:52:19;;;;;;;0.15;0.15;;;9.50;99.90;;;;;;6274494;22;20378;-74
2023/04/11 08:54:51;;;;;;;0.10;0.10;;;9.50;99.90;;;;;;6275339;22;20027;-75
2023/04/11 08:57:27;;;;;;;0.20;0.20;;;9.60;99.90;;;;;;6271905;22;20027;-75
2023/04/11 08:59:54;;;;;;;0.20;0.20;;;9.70;99.90;;;;;;6246119;22;20335;-76
2023/04/11 09:02:21;;;;;;;0.20;0.20;;;9.80;99.90;;;;;;6274276;22;20027;-75
2023/04/11 09:04:47;;;;;;;0.20;0.20;;;9.80;99.90;;;;;;6271958;22;20077;-74
2023/04/11 09:07:15;;;;;;;0.20;0.20;;;9.80;99.90;;;;;;6272545;22;20503;-74
2023/04/11 09:09:42;;;;;;;0.20;0.20;;;9.80;99.90;;;;;;6275423;22;20332;-74
2023/04/11 09:12:08;;;;;;;0.20;0.20;;;9.80;99.90;;;;;;6272288;22;20012;-75
2023/04/11 09:14:33;;;;;;;0.10;0.10;;;9.80;99.90;;;;;;6275550;22;20034;-74
2023/04/11 09:17:03;;;;;;;0.20;0.20;;;9.80;99.90;;;;;;6252267;22;20012;-74
2023/04/11 09:19:33;;;;;;;0.17;0.17;;;9.80;99.90;;;;;;6252713;22;20058;-74
2023/04/11 09:22:02;;;;;;;0.20;0.20;;;10.00;99.90;;;;;;6246664;22;20090;-73
2023/04/11 09:24:28;;;;;;;0.10;0.10;;;10.10;99.90;;;;;;6246291;22;20016;-74
2023/04/11 09:27:15;;;;;;;0.15;0.15;;;10.00;99.90;;;;;;6272307;22;20027;-74
2023/04/11 09:29:44;;;;;;;0.20;0.20;;;9.70;99.90;;;;;;6273060;22;20016;-75
2023/04/11 09:32:33;;;;;;;0.20;0.20;;;9.40;99.90;;;;;;6244813;22;20011;-74
2023/04/11 09:35:27;;;;;;;0.20;0.20;;;9.10;99.90;;;;;;6246577;22;20034;-75
2023/04/11 09:37:55;;;;;;;0.10;0.10;;;9.10;99.90;;;;;;6272012;22;20091;-75
2023/04/11 09:40:26;;;;;;;0.15;0.15;;;8.80;99.90;;;;;;6272373;22;20054;-74
2023/04/11 09:43:00;;;;;;;0.20;0.20;;;8.80;99.90;;;;;;6247358;22;20019;-74
2023/04/11 09:45:27;;;;;;;0.10;0.10;;;8.60;99.90;;;;;;6245558;22;20169;-74
2023/04/11 09:47:55;;;;;;;0.20;0.20;;;8.60;99.90;;;;;;6274589;22;20016;-73
2023/04/11 09:50:22;;;;;;;0.20;0.20;;;8.50;99.90;;;;;;6274639;22;20059;-74
2023/04/11 09:52:49;;;;;;;0.20;0.20;;;8.60;99.90;;;;;;6245965;22;20487;-74
2023/04/11 09:55:19;;;;;;;0.20;0.20;;;8.70;99.90;;;;;;6272387;22;20012;-73
2023/04/11 09:57:47;;;;;;;0.20;0.20;;;8.80;99.90;;;;;;6245778;22;20388;-73
2023/04/11 10:00:15;;;;;;;0.10;0.10;;;9.30;99.90;;;;;;6272024;22;20020;-73
2023/04/11 10:02:52;;;;;;;0.10;0.10;;;9.20;99.90;;;;;;6246244;22;20050;-74
2023/04/11 10:05:26;;;;;;;0.17;0.17;;;9.30;99.90;;;;;;6243787;22;20416;-75
2023/04/11 10:08:16;;;;;;;0.20;0.20;;;9.30;99.90;;;;;;6269170;22;20034;-73
2023/04/11 10:10:42;;;;;;;0.13;0.13;;;9.20;99.90;;;;;;6242217;22;20023;-73
2023/04/11 10:13:40;;;;;;;0.20;0.20;;;9.00;99.90;;;;;;6267838;22;20016;-74
2023/04/11 10:16:17;;;;;;;0.20;0.20;;;8.80;99.90;;;;;;6245652;22;20016;-75
2023/04/11 10:18:51;;;;;;;0.10;0.10;;;8.60;99.90;;;;;;6271334;22;20020;-74
2023/04/11 10:21:29;;;;;;;0.20;0.20;;;8.40;99.90;;;;;;6271847;22;20094;-74
2023/04/11 10:24:19;;;;;;;0.20;0.20;;;8.40;99.90;;;;;;6245221;22;20486;-75
2023/04/11 10:26:59;;;;;;;0.13;0.13;;;8.40;99.90;;;;;;6271096;22;20078;-74
2023/04/11 10:29:31;;;;;;;0.20;0.20;;;8.50;99.90;;;;;;6245767;22;20012;-74
2023/04/11 10:32:16;;;;;;;0.20;0.20;;;8.80;99.90;;;;;;6273005;22;20023;-74
2023/04/11 10:34:50;;;;;;;0.15;0.15;;;9.10;99.90;;;;;;6271687;22;20027;-74
2023/04/11 10:37:33;;;;;;;0.10;0.10;;;9.20;99.90;;;;;;6245040;22;20400;-75
2023/04/11 10:40:10;;;;;;;0.20;0.20;;;9.40;99.90;;;;;;6245983;22;20154;-74
2023/04/11 10:42:45;;;;;;;0.20;0.20;;;9.30;99.90;;;;;;6269811;22;20082;-75
2023/04/11 10:45:16;;;;;;;0.20;0.20;;;9.20;99.90;;;;;;6240560;23;20020;-74
2023/04/11 10:47:58;;;;;;;0.20;0.20;;;9.10;99.90;;;;;;6240517;23;20016;-75
2023/04/11 10:50:27;;;;;;;0.20;0.20;;;8.90;99.90;;;;;;6239144;23;20078;-74
2023/04/11 10:53:03;;;;;;;0.10;0.10;;;8.80;99.90;;;;;;6236685;23;20016;-74
2023/04/11 10:55:41;;;;;;;0.10;0.10;;;8.70;99.90;;;;;;6235859;23;20024;-74
2023/04/11 10:58:08;;;;;;;0.20;0.20;;;8.60;99.90;;;;;;6242244;23;20110;-74
2023/04/11 11:00:48;;;;;;;0.10;0.10;;;8.60;99.90;;;;;;6246899;22;20090;-73
2023/04/11 11:03:15;;;;;;;0.20;0.20;;;8.60;99.90;;;;;;6238508;23;20016;-73
2023/04/11 11:05:41;;;;;;;0.20;0.20;;;8.60;99.90;;;;;;6240781;23;20031;-74
2023/04/11 11:08:07;;;;;;;0.10;0.10;;;8.70;99.90;;;;;;6239109;23;20016;-74
2023/04/11 11:10:46;;;;;;;0.20;0.20;;;8.60;99.90;;;;;;6238358;23;20111;-73
2023/04/11 11:13:14;;;;;;;0.15;0.15;;;8.60;99.90;;;;;;6239954;23;20445;-73
2023/04/11 11:15:46;;;;;;;0.20;0.20;;;8.70;99.90;;;;;;6242171;22;20023;-74
2023/04/11 11:18:14;;;;;;;0.17;0.17;;;8.70;99.90;;;;;;6239109;23;20023;-73
2023/04/11 11:20:40;;;;;;;0.17;0.17;;;8.60;99.90;;;;;;6239296;23;20391;-73
2023/04/11 11:23:08;;;;;;;0.20;0.20;;;8.70;99.90;;;;;;6241100;22;20027;-74
2023/04/11 11:25:35;;;;;;;0.10;0.10;;;8.90;99.90;;;;;;6238231;23;20012;-73
2023/04/11 11:28:02;;;;;;;0.10;0.10;;;9.20;99.90;;;;;;6240386;23;20020;-74
2023/04/11 11:30:28;;;;;;;0.15;0.15;;;9.50;99.90;;;;;;6241767;22;20016;-73
2023/04/11 11:32:55;;;;;;;0.20;0.20;;;9.80;99.90;;;;;;6239071;23;20023;-73
2023/04/11 11:35:21;;;;;;;0.10;0.10;;;10.10;99.90;;;;;;6240371;23;20020;-73
2023/04/11 11:37:50;;;;;;;0.10;0.10;;;10.30;99.90;;;;;;6240249;23;20392;-73
2023/04/11 11:40:17;;;;;;;0.10;0.10;;;10.60;99.90;;;;;;6239146;23;20131;-73
2023/04/11 11:42:43;;;;;;;0.17;0.17;;;10.60;99.90;;;;;;6241821;22;20016;-73
2023/04/11 11:45:20;;;;;;;0.15;0.15;;;10.50;99.90;;;;;;6266944;22;20015;-73
2023/04/11 11:47:48;;;;;;;0.20;0.20;;;10.40;99.90;;;;;;6272259;22;20460;-73
2023/04/11 11:50:34;;;;;;;0.20;0.20;;;10.20;99.90;;;;;;6272832;22;20376;-74
2023/04/11 11:53:13;;;;;;;0.10;0.10;;;10.30;99.90;;;;;;6270564;22;20061;-73
2023/04/11 11:55:39;;;;;;;0.15;0.15;;;10.20;99.90;;;;;;6271827;22;20019;-73
2023/04/11 11:58:05;;;;;;;0.17;0.17;;;10.20;99.90;;;;;;6272149;22;20459;-74
2023/04/11 12:00:36;;;;;;;0.20;0.20;;;10.30;99.90;;;;;;6269587;22;20367;-74
2023/04/11 12:03:03;;;;;;;0.20;0.20;;;10.40;99.90;;;;;;6244111;22;20100;-74
2023/04/11 12:05:31;;;;;;;0.20;0.20;;;10.50;99.90;;;;;;6243260;22;20066;-73
2023/04/11 12:07:59;;;;;;;0.10;0.10;;;10.60;99.90;;;;;;6243310;22;20305;-74
2023/04/11 12:10:35;;;;;;;0.10;0.10;;;10.70;99.90;;;;;;6271707;22;20089;-74
2023/04/11 12:13:01;;;;;;;0.20;0.20;;;10.70;99.90;;;;;;6241926;22;20015;-74
2023/04/11 12:15:27;;;;;;;0.10;0.10;;;10.60;99.90;;;;;;6271434;22;20462;-74
2023/04/11 12:17:58;;;;;;;0.20;0.20;;;10.20;99.90;;;;;;6269012;22;20400;-75
2023/04/11 12:20:26;;;;;;;0.20;0.20;;;9.90;99.90;;;;;;6269625;22;20073;-75
2023/04/11 12:22:52;;;;;;;0.15;0.15;;;9.60;99.90;;;;;;6273927;22;20026;-75
2023/04/11 12:25:18;;;;;;;0.10;0.10;;;9.60;99.90;;;;;;6245325;22;20484;-75
2023/04/11 12:27:45;;;;;;;0.10;0.10;;;9.80;99.90;;;;;;6273358;22;20015;-75
2023/04/11 12:30:15;;;;;;;0.20;0.20;;;9.90;99.90;;;;;;6247360;22;20024;-73
2023/04/11 12:32:41;;;;;;;0.20;0.20;;;10.10;99.90;;;;;;6274871;22;20016;-74
2023/04/11 12:35:07;;;;;;;0.10;0.10;;;10.30;99.90;;;;;;6247153;22;20055;-73
2023/04/11 12:37:34;;;;;;;0.20;0.20;;;10.20;99.90;;;;;;6274389;22;20011;-74
2023/04/11 12:40:00;;;;;;;0.13;0.13;;;10.30;99.90;;;;;;6278375;22;20015;-74
2023/04/11 12:42:25;;;;;;;0.10;0.10;;;10.40;99.90;;;;;;6251700;22;20073;-74
2023/04/11 12:44:51;;;;;;;0.10;0.10;;;10.40;99.90;;;;;;6247980;22;20444;-74
2023/04/11 12:47:17;;;;;;;0.20;0.20;;;10.40;99.90;;;;;;6245837;22;20360;-74
2023/04/11 12:49:43;;;;;;;0.20;0.20;;;10.30;99.90;;;;;;6273613;22;20055;-73
2023/04/11 12:52:09;;;;;;;0.20;0.20;;;10.30;99.90;;;;;;6245249;22;20547;-73
2023/04/11 12:54:35;;;;;;;0.10;0.10;;;10.30;99.90;;;;;;6274820;22;20050;-74
2023/04/11 12:57:02;;;;;;;0.20;0.20;;;10.30;99.90;;;;;;6243971;22;20019;-73
2023/04/11 12:59:28;;;;;;;0.20;0.20;;;10.20;99.90;;;;;;6274257;22;20313;-73